Time;durP1;ratioP1;P1;durP2;ratioP2;P2;SDS_P1;SDS_P2;PMS_P1;PMS_P2;Temp;Humidity;BMP_temperature;BMP_pressure;BME280_temperature;BME280_humidity;BME280_pressure;Samples;Min_cycle;Max_cycle;Signal;HPM_P1;HPM_P2
2021/08/01 00:01:01;;;;;;;17.58;8.40;;;17.70;84.20;;;;;;5003766;28;20229;-90
2021/08/01 00:03:27;;;;;;;16.80;9.07;;;17.70;84.30;;;;;;5010792;28;20191;-91
2021/08/01 00:05:52;;;;;;;19.83;8.87;;;17.60;84.00;;;;;;5012740;28;20187;-90
2021/08/01 00:08:18;;;;;;;9.20;7.40;;;17.60;83.90;;;;;;5013016;28;20449;-90
2021/08/01 00:10:44;;;;;;;13.67;8.20;;;17.60;83.90;;;;;;5012127;28;20175;-91
2021/08/01 00:13:09;;;;;;;15.00;8.43;;;17.70;84.00;;;;;;5001279;28;20253;-91
2021/08/01 00:15:35;;;;;;;15.10;9.33;;;17.70;84.30;;;;;;4996144;28;20681;-91
2021/08/01 00:18:02;;;;;;;16.57;8.63;;;17.70;83.50;;;;;;4995380;28;20187;-90
2021/08/01 00:20:28;;;;;;;13.75;7.97;;;17.60;83.40;;;;;;4996354;28;20175;-91
2021/08/01 00:22:54;;;;;;;17.50;7.70;;;17.50;83.40;;;;;;4997348;28;20226;-90
2021/08/01 00:25:20;;;;;;;10.23;7.03;;;17.50;83.60;;;;;;4995956;28;20183;-90
2021/08/01 00:27:46;;;;;;;11.90;8.47;;;17.50;83.60;;;;;;5010591;28;20426;-90
2021/08/01 00:30:12;;;;;;;11.47;8.27;;;17.50;83.50;;;;;;4995543;28;20171;-90
2021/08/01 00:32:39;;;;;;;13.05;8.05;;;17.50;83.50;;;;;;4995163;28;20437;-90
2021/08/01 00:35:06;;;;;;;15.98;9.10;;;17.50;83.50;;;;;;4995540;28;20215;-91
2021/08/01 00:37:32;;;;;;;15.32;8.02;;;17.50;83.50;;;;;;4995728;28;20178;-91
2021/08/01 00:39:59;;;;;;;13.23;7.88;;;17.50;83.30;;;;;;4995658;28;20179;-90
2021/08/01 00:42:25;;;;;;;19.88;7.90;;;17.50;83.00;;;;;;4994747;28;20562;-91
2021/08/01 00:44:50;;;;;;;18.10;8.00;;;17.50;83.10;;;;;;4995483;28;20188;-90
2021/08/01 00:47:17;;;;;;;11.23;7.50;;;17.50;83.20;;;;;;4996768;28;20407;-89
2021/08/01 00:49:43;;;;;;;12.65;8.05;;;17.50;83.20;;;;;;4995268;28;20422;-90
2021/08/01 00:52:10;;;;;;;13.73;8.15;;;17.50;83.10;;;;;;4994760;28;20203;-91
2021/08/01 00:54:36;;;;;;;17.45;8.00;;;17.50;83.20;;;;;;4994280;28;20210;-90
2021/08/01 00:57:02;;;;;;;19.83;9.20;;;17.50;83.30;;;;;;4995003;28;20183;-90
2021/08/01 00:59:35;;;;;;;15.52;8.43;;;17.40;83.20;;;;;;4995139;28;20214;-91
2021/08/01 01:02:05;;;;;;;14.48;7.90;;;17.50;83.00;;;;;;4994224;28;20209;-90
2021/08/01 01:04:43;;;;;;;13.05;7.07;;;17.50;83.00;;;;;;4994872;28;20178;-90
2021/08/01 01:07:15;;;;;;;17.95;8.60;;;17.50;82.80;;;;;;4998084;28;20306;-90
2021/08/01 01:10:00;;;;;;;16.50;8.95;;;17.50;82.80;;;;;;4995431;28;20183;-91
2021/08/01 01:12:46;;;;;;;12.43;6.95;;;17.40;82.80;;;;;;4994226;28;20229;-91
2021/08/01 01:15:22;;;;;;;13.10;7.63;;;17.40;83.00;;;;;;4994596;28;20684;-90
2021/08/01 01:17:51;;;;;;;14.82;9.15;;;17.40;83.00;;;;;;4996270;28;20178;-90
2021/08/01 01:20:23;;;;;;;18.38;8.68;;;17.40;82.90;;;;;;4994544;28;20218;-90
2021/08/01 01:23:01;;;;;;;10.70;7.57;;;17.30;83.00;;;;;;5009032;28;20218;-91
2021/08/01 01:25:41;;;;;;;11.98;7.00;;;17.40;83.00;;;;;;4994468;28;20230;-91
2021/08/01 01:28:33;;;;;;;11.32;6.80;;;17.30;83.20;;;;;;4994488;28;20269;-90
2021/08/01 01:31:21;;;;;;;13.15;7.47;;;17.30;83.50;;;;;;4994578;28;20187;-90
2021/08/01 01:34:10;;;;;;;11.15;7.25;;;17.30;83.50;;;;;;4994360;28;20573;-91
2021/08/01 01:36:38;;;;;;;10.27;7.38;;;17.30;83.40;;;;;;4994076;28;20317;-91
2021/08/01 01:39:05;;;;;;;12.75;6.78;;;17.30;83.40;;;;;;4994003;28;20273;-90
2021/08/01 01:41:33;;;;;;;16.38;8.05;;;17.30;83.20;;;;;;4993951;28;20195;-90
2021/08/01 01:44:00;;;;;;;11.40;7.60;;;17.30;83.20;;;;;;4994280;28;20214;-90
2021/08/01 01:46:27;;;;;;;12.63;9.00;;;17.20;83.20;;;;;;4993995;28;20624;-90
2021/08/01 01:48:55;;;;;;;15.52;6.82;;;17.20;83.20;;;;;;4996512;28;20593;-90
2021/08/01 01:51:21;;;;;;;17.73;9.50;;;17.20;83.20;;;;;;4993644;28;20185;-90
2021/08/01 01:53:48;;;;;;;15.38;7.43;;;17.20;83.10;;;;;;4994514;28;20214;-91
2021/08/01 01:56:14;;;;;;;11.93;7.43;;;17.20;83.20;;;;;;4994893;28;20214;-91
2021/08/01 01:58:41;;;;;;;14.07;8.20;;;17.10;83.30;;;;;;4993705;28;20426;-91
2021/08/01 02:01:07;;;;;;;17.88;8.52;;;17.20;83.30;;;;;;4995027;28;20186;-90
2021/08/01 02:03:33;;;;;;;13.83;8.17;;;17.10;83.30;;;;;;4993365;28;20286;-91
2021/08/01 02:06:00;;;;;;;14.13;10.02;;;17.10;83.30;;;;;;4993277;28;20274;-90
2021/08/01 02:08:35;;;;;;;20.38;9.65;;;17.30;82.80;;;;;;4996930;28;20183;-90
2021/08/01 02:11:02;;;;;;;20.00;9.80;;;17.30;82.70;;;;;;4994844;28;20183;-91
2021/08/01 02:13:36;;;;;;;24.05;11.00;;;17.30;82.70;;;;;;4999715;28;20720;-90
2021/08/01 02:16:03;;;;;;;30.83;11.35;;;17.30;82.20;;;;;;4993654;28;20222;-90
2021/08/01 02:18:46;;;;;;;30.27;11.13;;;17.20;83.20;;;;;;5006332;28;20175;-90
2021/08/01 02:21:12;;;;;;;15.52;10.20;;;17.30;82.60;;;;;;4993833;28;20171;-92
2021/08/01 02:23:45;;;;;;;21.17;12.40;;;17.30;82.50;;;;;;4993157;28;20253;-91
2021/08/01 02:26:13;;;;;;;18.52;10.52;;;17.30;82.40;;;;;;4993813;28;20480;-90
2021/08/01 02:28:41;;;;;;;18.15;11.68;;;17.30;82.40;;;;;;4993183;28;20184;-90
2021/08/01 02:31:09;;;;;;;33.63;13.40;;;17.40;82.30;;;;;;4993478;28;20174;-90
2021/08/01 02:33:36;;;;;;;28.05;14.25;;;17.50;82.40;;;;;;4993629;28;20683;-91
2021/08/01 02:36:06;;;;;;;24.50;13.93;;;17.50;82.10;;;;;;4994250;28;20285;-91
2021/08/01 02:38:34;;;;;;;40.78;14.40;;;17.50;81.80;;;;;;4993606;28;20647;-91
2021/08/01 02:41:26;;;;;;;31.25;14.80;;;17.40;81.70;;;;;;5006822;28;20179;-90
2021/08/01 02:43:53;;;;;;;28.08;15.60;;;17.40;81.80;;;;;;5008049;28;20175;-90
2021/08/01 02:46:26;;;;;;;35.42;17.95;;;17.40;81.90;;;;;;4993705;28;20276;-91
2021/08/01 02:48:58;;;;;;;29.85;18.65;;;17.40;81.80;;;;;;4992881;28;20502;-91
2021/08/01 02:51:26;;;;;;;32.50;18.05;;;17.40;81.80;;;;;;4993571;28;20237;-90
2021/08/01 02:53:55;;;;;;;39.67;16.48;;;17.40;82.00;;;;;;4993034;28;20550;-90
2021/08/01 02:56:23;;;;;;;41.00;16.98;;;17.40;82.00;;;;;;4993091;28;20285;-90
2021/08/01 02:58:51;;;;;;;44.58;18.90;;;17.50;81.80;;;;;;4993679;28;20594;-91
2021/08/01 03:01:17;;;;;;;36.03;18.55;;;17.60;81.90;;;;;;4992944;28;20185;-90
2021/08/01 03:03:44;;;;;;;32.10;15.70;;;17.50;81.70;;;;;;4995665;28;20235;-90
2021/08/01 03:06:10;;;;;;;36.58;17.50;;;17.50;81.80;;;;;;4994102;28;20237;-90
2021/08/01 03:08:37;;;;;;;29.77;15.57;;;17.70;81.20;;;;;;4994160;28;20631;-90
2021/08/01 03:11:02;;;;;;;38.03;17.80;;;17.70;80.60;;;;;;4996344;28;20289;-91
2021/08/01 03:13:28;;;;;;;28.27;14.30;;;17.60;80.90;;;;;;4993078;28;20294;-90
2021/08/01 03:15:54;;;;;;;29.67;16.87;;;17.60;81.10;;;;;;4999515;28;20842;-90
2021/08/01 03:18:20;;;;;;;35.27;15.83;;;17.80;80.10;;;;;;4998138;28;20677;-90
2021/08/01 03:20:45;;;;;;;33.13;17.17;;;17.60;80.20;;;;;;4993668;28;20178;-90
2021/08/01 03:23:11;;;;;;;31.50;16.40;;;17.50;80.70;;;;;;4994348;28;20206;-91
2021/08/01 03:25:38;;;;;;;29.20;17.73;;;17.50;81.00;;;;;;4993134;28;20187;-91
2021/08/01 03:28:04;;;;;;;33.17;16.60;;;17.50;81.20;;;;;;4993335;28;20449;-90
2021/08/01 03:30:30;;;;;;;32.05;16.75;;;17.40;81.60;;;;;;4995156;28;20210;-90
2021/08/01 03:32:56;;;;;;;34.95;16.73;;;17.60;81.50;;;;;;4992672;28;20226;-90
2021/08/01 03:35:22;;;;;;;36.13;15.93;;;17.60;81.40;;;;;;4994350;28;20249;-90
2021/08/01 03:37:48;;;;;;;31.73;15.10;;;17.50;81.70;;;;;;4992839;28;20673;-91
2021/08/01 03:40:15;;;;;;;35.13;16.43;;;17.70;81.70;;;;;;4992771;28;20187;-90
2021/08/01 03:42:41;;;;;;;29.02;13.68;;;17.60;81.50;;;;;;4992841;28;20469;-91
2021/08/01 03:45:10;;;;;;;28.93;15.30;;;17.60;81.50;;;;;;4992615;28;20218;-91
2021/08/01 03:47:37;;;;;;;27.30;16.88;;;17.60;81.90;;;;;;4993111;28;20433;-91
2021/08/01 03:50:04;;;;;;;39.10;16.63;;;17.60;81.80;;;;;;4992668;28;20229;-91
2021/08/01 03:52:30;;;;;;;39.90;16.80;;;17.60;81.80;;;;;;4992051;28;20679;-91
2021/08/01 03:54:55;;;;;;;27.90;16.50;;;17.60;81.80;;;;;;4993426;28;20233;-91
2021/08/01 03:57:21;;;;;;;37.43;16.90;;;17.80;81.70;;;;;;4994236;28;20179;-91
2021/08/01 03:59:47;;;;;;;35.30;17.97;;;17.70;81.40;;;;;;4994213;28;20414;-90
2021/08/01 04:02:13;;;;;;;27.00;15.20;;;17.70;81.50;;;;;;4992294;28;20265;-91
2021/08/01 04:04:40;;;;;;;33.97;16.80;;;17.80;81.60;;;;;;4992403;28;20183;-90
2021/08/01 04:07:06;;;;;;;35.88;16.75;;;17.80;81.60;;;;;;4992828;28;20171;-91
2021/08/01 04:09:31;;;;;;;39.30;17.13;;;17.70;81.80;;;;;;5003285;28;20198;-89
2021/08/01 04:12:20;;;;;;;28.23;15.30;;;17.90;81.40;;;;;;5001723;28;20269;-91
2021/08/01 04:14:46;;;;;;;23.73;14.00;;;17.80;81.10;;;;;;4993143;28;20226;-91
2021/08/01 04:17:12;;;;;;;26.23;14.47;;;17.80;81.10;;;;;;4992300;28;20183;-91
2021/08/01 04:19:40;;;;;;;30.70;14.10;;;18.00;80.90;;;;;;4992803;28;20175;-91
2021/08/01 04:22:05;;;;;;;28.58;12.90;;;18.00;80.20;;;;;;5002453;28;20195;-90
2021/08/01 04:24:31;;;;;;;35.43;13.13;;;18.00;80.10;;;;;;4993528;28;20182;-90
2021/08/01 04:26:57;;;;;;;22.40;13.53;;;18.10;80.20;;;;;;4992526;28;20180;-90
2021/08/01 04:29:23;;;;;;;26.00;13.33;;;17.90;80.50;;;;;;4993669;28;20186;-91
2021/08/01 04:31:48;;;;;;;20.60;11.30;;;17.90;80.70;;;;;;4995444;28;20481;-91
2021/08/01 04:34:16;;;;;;;26.10;12.60;;;17.90;80.40;;;;;;4995536;28;20175;-91
2021/08/01 04:36:42;;;;;;;29.13;12.35;;;17.90;80.70;;;;;;4994950;28;20575;-91
2021/08/01 04:39:08;;;;;;;26.43;13.70;;;17.80;80.90;;;;;;4995483;28;20176;-91
2021/08/01 04:41:33;;;;;;;31.07;13.10;;;17.70;81.30;;;;;;4994905;28;20182;-90
2021/08/01 04:44:00;;;;;;;28.60;14.00;;;17.70;81.40;;;;;;4996011;28;20262;-90
2021/08/01 04:46:25;;;;;;;36.97;14.20;;;17.90;81.30;;;;;;4995481;28;20179;-91
2021/08/01 04:48:51;;;;;;;26.50;13.73;;;18.00;80.80;;;;;;4995028;28;20195;-91
2021/08/01 04:51:17;;;;;;;33.10;14.50;;;17.90;81.10;;;;;;4995549;28;20175;-90
2021/08/01 04:53:43;;;;;;;30.47;15.60;;;17.90;81.30;;;;;;4997974;28;20195;-91
2021/08/01 04:56:09;;;;;;;28.67;15.00;;;18.00;81.40;;;;;;4995428;28;20470;-90
2021/08/01 04:58:35;;;;;;;23.25;13.35;;;17.80;81.40;;;;;;4995494;28;20740;-91
2021/08/01 05:01:02;;;;;;;34.63;14.52;;;17.90;81.60;;;;;;4995028;28;20186;-91
2021/08/01 05:03:27;;;;;;;28.08;14.15;;;17.80;81.60;;;;;;4996662;28;20278;-91
2021/08/01 05:05:53;;;;;;;27.83;14.10;;;17.90;81.50;;;;;;5009141;28;20238;-91
2021/08/01 05:08:19;;;;;;;28.23;13.87;;;17.90;81.50;;;;;;4995382;28;20163;-91
2021/08/01 05:10:44;;;;;;;32.40;14.63;;;18.00;81.40;;;;;;4996172;28;20187;-91
2021/08/01 05:13:10;;;;;;;39.10;14.00;;;18.00;81.10;;;;;;4994604;28;20242;-91
2021/08/01 05:15:39;;;;;;;34.20;14.40;;;18.00;81.20;;;;;;4995632;28;20240;-91
2021/08/01 05:18:05;;;;;;;30.50;15.13;;;18.10;81.40;;;;;;4994731;28;20642;-90
2021/08/01 05:20:31;;;;;;;30.23;15.23;;;18.20;80.50;;;;;;4994837;28;20201;-91
2021/08/01 05:22:57;;;;;;;27.87;13.70;;;18.30;79.90;;;;;;4995847;28;20620;-90
2021/08/01 05:25:22;;;;;;;32.57;15.93;;;18.20;80.10;;;;;;4999262;28;20183;-90
2021/08/01 05:27:48;;;;;;;27.57;13.87;;;18.10;80.30;;;;;;5003356;28;20183;-91
2021/08/01 05:30:14;;;;;;;22.27;13.47;;;18.00;80.20;;;;;;4994736;28;20423;-91
2021/08/01 05:32:40;;;;;;;35.93;18.37;;;18.00;80.40;;;;;;4993826;28;20357;-90
2021/08/01 05:35:06;;;;;;;42.10;17.17;;;18.10;80.10;;;;;;4995026;28;20830;-90
2021/08/01 05:37:32;;;;;;;28.42;14.90;;;18.00;80.10;;;;;;4994618;28;20207;-91
2021/08/01 05:39:57;;;;;;;24.83;14.27;;;17.90;80.50;;;;;;4995018;28;20202;-91
2021/08/01 05:42:23;;;;;;;39.00;17.67;;;17.90;80.70;;;;;;4997678;28;20187;-91
2021/08/01 05:44:49;;;;;;;32.13;14.67;;;17.90;81.00;;;;;;4995453;28;20186;-90
2021/08/01 05:47:14;;;;;;;31.80;15.93;;;18.00;81.20;;;;;;4996600;28;20250;-91
2021/08/01 05:49:40;;;;;;;30.50;17.37;;;18.20;81.10;;;;;;4995301;28;20302;-91
2021/08/01 05:52:06;;;;;;;28.17;15.53;;;18.20;80.10;;;;;;4993882;28;20207;-90
2021/08/01 05:54:31;;;;;;;30.27;15.63;;;18.20;80.40;;;;;;4996967;28;20670;-91
2021/08/01 05:56:57;;;;;;;35.90;18.57;;;18.20;80.70;;;;;;4994019;28;20525;-90
2021/08/01 05:59:23;;;;;;;31.30;16.10;;;18.20;80.00;;;;;;4993742;28;20206;-91
2021/08/01 06:01:48;;;;;;;29.30;14.90;;;18.30;80.30;;;;;;5005546;28;20183;-90
2021/08/01 06:04:15;;;;;;;38.67;17.10;;;18.40;80.20;;;;;;4995434;28;20183;-91
2021/08/01 06:06:41;;;;;;;35.55;16.92;;;18.30;80.20;;;;;;4995035;28;20237;-90
2021/08/01 06:09:06;;;;;;;32.17;14.80;;;18.40;80.20;;;;;;4995071;28;20254;-91
2021/08/01 06:11:32;;;;;;;29.83;15.17;;;18.30;80.40;;;;;;4996802;28;20631;-91
2021/08/01 06:13:58;;;;;;;30.53;16.53;;;18.30;80.80;;;;;;5006000;28;20291;-91
2021/08/01 06:16:23;;;;;;;32.90;15.73;;;18.30;81.00;;;;;;4998271;28;20685;-90
2021/08/01 06:18:49;;;;;;;33.00;14.43;;;18.50;80.60;;;;;;4994682;28;20179;-91
2021/08/01 06:21:19;;;;;;;27.57;14.40;;;18.70;79.60;;;;;;4993455;28;20182;-91
2021/08/01 06:23:51;;;;;;;33.28;14.50;;;18.50;79.20;;;;;;4993594;28;20195;-90
2021/08/01 06:26:21;;;;;;;26.40;14.27;;;18.50;79.20;;;;;;4993659;28;20187;-91
2021/08/01 06:28:48;;;;;;;36.70;15.00;;;18.50;79.50;;;;;;4995291;28;20626;-91
2021/08/01 06:31:14;;;;;;;32.22;15.55;;;18.50;79.80;;;;;;4997482;28;20666;-91
2021/08/01 06:33:41;;;;;;;35.92;14.07;;;18.70;79.90;;;;;;5002786;28;20669;-91
2021/08/01 06:36:11;;;;;;;37.35;15.45;;;18.60;79.60;;;;;;4993463;28;20215;-91
2021/08/01 06:38:38;;;;;;;33.75;14.63;;;18.80;79.50;;;;;;4993946;28;20167;-91
2021/08/01 06:41:05;;;;;;;53.22;16.50;;;18.90;79.30;;;;;;4993295;28;20247;-91
2021/08/01 06:43:31;;;;;;;45.22;14.65;;;18.80;79.10;;;;;;4993253;28;20332;-91
2021/08/01 06:45:56;;;;;;;27.83;14.03;;;18.90;79.10;;;;;;4993122;28;20273;-91
2021/08/01 06:48:23;;;;;;;41.23;17.90;;;19.00;78.80;;;;;;4993039;28;20418;-91
2021/08/01 06:50:49;;;;;;;37.10;14.57;;;18.90;78.30;;;;;;4993308;28;20175;-91
2021/08/01 06:53:15;;;;;;;33.78;12.50;;;18.90;78.30;;;;;;4993637;28;20296;-91
2021/08/01 06:55:41;;;;;;;40.38;14.35;;;19.10;78.30;;;;;;4993155;28;20615;-91
2021/08/01 06:58:06;;;;;;;45.87;13.90;;;19.30;77.90;;;;;;5003238;28;20171;-91
2021/08/01 07:00:32;;;;;;;33.60;13.20;;;19.60;77.20;;;;;;4994381;28;20185;-92
2021/08/01 07:03:00;;;;;;;33.40;12.70;;;19.90;75.50;;;;;;4993106;28;20716;-91
2021/08/01 07:05:27;;;;;;;29.77;12.70;;;20.20;73.90;;;;;;4992885;28;20183;-92
2021/08/01 07:07:54;;;;;;;24.27;13.50;;;20.20;73.90;;;;;;4993037;28;20199;-92
2021/08/01 07:10:21;;;;;;;28.05;12.77;;;20.40;73.80;;;;;;4993552;28;20206;-91
2021/08/01 07:12:47;;;;;;;26.38;12.50;;;20.40;73.40;;;;;;4992235;28;20222;-91
2021/08/01 07:15:28;;;;;;;22.83;12.83;;;20.40;71.90;;;;;;4994244;28;20211;-91
2021/08/01 07:17:55;;;;;;;32.95;12.73;;;20.20;72.30;;;;;;4992739;28;20402;-91
2021/08/01 07:20:21;;;;;;;37.78;14.18;;;20.00;73.20;;;;;;4992993;28;20183;-91
2021/08/01 07:22:47;;;;;;;26.73;12.87;;;20.00;73.70;;;;;;4992851;28;20225;-91
2021/08/01 07:25:13;;;;;;;27.00;14.93;;;20.00;74.20;;;;;;4992835;28;20207;-91
2021/08/01 07:27:38;;;;;;;37.23;15.30;;;20.20;74.10;;;;;;4993625;28;20183;-91
2021/08/01 07:30:06;;;;;;;28.67;15.23;;;20.30;74.10;;;;;;4993855;28;20206;-91
2021/08/01 07:32:31;;;;;;;22.30;13.27;;;20.20;74.30;;;;;;4992606;28;20271;-91
2021/08/01 07:34:57;;;;;;;24.53;13.00;;;20.10;74.90;;;;;;4993882;28;20645;-92
2021/08/01 07:37:23;;;;;;;32.10;13.20;;;20.20;75.60;;;;;;5007422;28;20171;-91
2021/08/01 07:39:49;;;;;;;29.17;11.67;;;20.40;75.40;;;;;;4994489;28;20193;-92
2021/08/01 07:42:14;;;;;;;28.20;11.67;;;20.20;75.60;;;;;;4992928;28;20441;-92
2021/08/01 07:44:48;;;;;;;21.17;13.23;;;20.40;75.50;;;;;;4992767;28;20186;-92
2021/08/01 07:47:19;;;;;;;26.00;12.75;;;20.30;75.50;;;;;;4996174;28;20217;-92
2021/08/01 07:49:46;;;;;;;23.52;12.30;;;20.40;75.20;;;;;;4992971;28;20273;-91
2021/08/01 07:52:13;;;;;;;32.58;14.00;;;20.20;75.30;;;;;;4992327;28;20560;-91
2021/08/01 07:54:39;;;;;;;34.40;13.00;;;20.20;75.50;;;;;;5006400;28;20215;-91
2021/08/01 07:57:06;;;;;;;28.48;15.15;;;20.10;75.70;;;;;;4993294;28;20175;-91
2021/08/01 07:59:32;;;;;;;25.42;14.45;;;20.00;76.10;;;;;;4994809;28;20183;-91
2021/08/01 08:01:57;;;;;;;26.53;14.07;;;20.00;76.40;;;;;;4992489;28;20275;-91
2021/08/01 08:04:23;;;;;;;37.70;15.70;;;20.00;76.70;;;;;;4994267;28;20414;-90
2021/08/01 08:06:51;;;;;;;26.10;14.30;;;20.30;75.00;;;;;;4996827;28;20180;-92
2021/08/01 08:09:16;;;;;;;29.15;15.85;;;20.60;74.50;;;;;;4996457;28;20188;-92
2021/08/01 08:11:42;;;;;;;20.07;12.97;;;20.60;74.50;;;;;;4996465;28;20251;-91
2021/08/01 08:14:08;;;;;;;17.47;13.40;;;20.60;74.60;;;;;;4996321;28;20253;-92
2021/08/01 08:16:34;;;;;;;26.03;13.47;;;20.70;74.50;;;;;;4996162;28;20575;-92
2021/08/01 08:18:59;;;;;;;23.08;12.48;;;20.80;73.60;;;;;;4996023;28;20266;-92
2021/08/01 08:21:26;;;;;;;29.83;12.97;;;20.90;73.70;;;;;;4996114;28;20246;-92
2021/08/01 08:23:53;;;;;;;17.75;13.02;;;21.20;73.00;;;;;;4997308;28;20539;-91
2021/08/01 08:26:19;;;;;;;19.70;11.70;;;21.40;71.50;;;;;;4996695;28;20250;-91
2021/08/01 08:28:45;;;;;;;18.93;11.03;;;21.70;70.50;;;;;;4996558;28;20426;-91
2021/08/01 08:31:10;;;;;;;23.53;12.70;;;21.80;69.50;;;;;;4996452;28;20175;-91
2021/08/01 08:33:38;;;;;;;18.80;11.50;;;21.80;70.00;;;;;;4996158;28;20265;-92
2021/08/01 08:36:04;;;;;;;19.50;11.67;;;21.70;70.30;;;;;;4995999;28;20277;-91
2021/08/01 08:38:29;;;;;;;17.80;12.50;;;21.90;70.40;;;;;;4997290;28;20399;-92
2021/08/01 08:40:55;;;;;;;17.60;10.97;;;21.90;69.00;;;;;;4999558;28;21009;-92
2021/08/01 08:43:21;;;;;;;22.63;12.40;;;22.00;69.10;;;;;;5011637;28;20454;-92
2021/08/01 08:45:48;;;;;;;18.57;10.20;;;22.10;68.40;;;;;;4999131;28;20179;-92
2021/08/01 08:48:16;;;;;;;17.73;11.27;;;22.20;69.00;;;;;;4997037;28;20422;-91
2021/08/01 08:50:47;;;;;;;15.63;11.23;;;22.20;68.20;;;;;;5015860;28;20521;-91
2021/08/01 08:53:14;;;;;;;20.80;10.93;;;22.20;68.10;;;;;;5005163;28;20460;-92
2021/08/01 08:55:40;;;;;;;13.10;9.87;;;22.30;68.00;;;;;;5001280;28;20466;-92
2021/08/01 08:58:07;;;;;;;13.87;10.37;;;22.30;67.70;;;;;;5002659;28;20910;-91
2021/08/01 09:00:34;;;;;;;11.30;10.10;;;22.20;67.60;;;;;;5002105;28;20517;-91
2021/08/01 09:03:00;;;;;;;15.37;10.10;;;22.20;67.80;;;;;;5002232;28;20458;-91
2021/08/01 09:05:26;;;;;;;13.83;9.33;;;22.30;67.90;;;;;;5000714;28;20722;-91
2021/08/01 09:07:52;;;;;;;16.80;9.70;;;22.40;67.20;;;;;;5000955;28;20961;-92
2021/08/01 09:10:18;;;;;;;13.77;9.73;;;22.40;66.50;;;;;;5011379;28;20423;-91
2021/08/01 09:12:49;;;;;;;11.13;8.23;;;22.70;66.60;;;;;;5013661;28;20686;-92
2021/08/01 09:15:21;;;;;;;11.17;8.10;;;23.10;65.10;;;;;;5009408;28;20218;-91
2021/08/01 09:17:48;;;;;;;11.77;7.33;;;23.20;63.80;;;;;;5010841;28;20917;-91
2021/08/01 09:20:22;;;;;;;14.77;8.63;;;23.20;63.30;;;;;;4995215;28;20466;-91
2021/08/01 09:23:00;;;;;;;16.03;8.17;;;23.30;63.00;;;;;;4997073;28;20457;-91
2021/08/01 09:25:31;;;;;;;10.20;7.20;;;23.40;62.50;;;;;;4994897;28;20457;-91
2021/08/01 09:28:21;;;;;;;11.93;9.07;;;23.60;61.70;;;;;;4995408;28;20438;-91
2021/08/01 09:30:55;;;;;;;11.70;9.10;;;23.60;61.10;;;;;;4994815;28;20422;-92
2021/08/01 09:33:38;;;;;;;12.10;8.70;;;23.70;60.80;;;;;;4994801;28;20841;-92
2021/08/01 09:36:25;;;;;;;12.10;10.90;;;24.20;60.20;;;;;;4995065;28;21031;-92
2021/08/01 09:38:56;;;;;;;12.47;9.47;;;24.40;58.70;;;;;;4994399;28;20932;-91
2021/08/01 09:41:37;;;;;;;11.43;8.03;;;24.30;58.00;;;;;;5003873;28;20411;-92
2021/08/01 09:44:08;;;;;;;10.13;7.00;;;24.20;57.50;;;;;;5010972;28;20786;-91
2021/08/01 09:46:46;;;;;;;7.97;6.43;;;24.20;57.40;;;;;;5012143;28;20417;-90
2021/08/01 09:49:17;;;;;;;8.27;7.33;;;24.10;58.50;;;;;;5010612;28;20426;-91
2021/08/01 09:51:44;;;;;;;10.67;7.30;;;24.00;58.60;;;;;;4994087;28;20418;-91
2021/08/01 09:54:11;;;;;;;8.50;6.73;;;24.30;59.10;;;;;;4995853;28;20446;-92
2021/08/01 09:56:56;;;;;;;5.30;4.80;;;24.30;57.70;;;;;;4994265;28;20462;-92
2021/08/01 09:59:32;;;;;;;6.03;5.53;;;23.50;56.90;;;;;;4994856;28;20837;-91
2021/08/01 10:02:02;;;;;;;5.40;4.90;;;22.90;59.40;;;;;;4993803;28;20803;-92
2021/08/01 10:04:37;;;;;;;7.60;6.30;;;22.20;61.30;;;;;;4994321;28;20414;-92
2021/08/01 10:07:14;;;;;;;6.27;5.67;;;21.60;65.20;;;;;;4994509;28;20743;-92
2021/08/01 10:09:48;;;;;;;6.50;5.90;;;21.10;67.40;;;;;;4994148;28;20450;-91
2021/08/01 10:12:15;;;;;;;15.57;6.60;;;20.60;70.30;;;;;;4994260;28;20221;-92
2021/08/01 10:14:44;;;;;;;7.70;4.78;;;20.30;71.90;;;;;;4993821;28;20214;-92
2021/08/01 10:17:10;;;;;;;7.28;5.38;;;20.00;72.80;;;;;;4993828;28;20190;-92
2021/08/01 10:19:36;;;;;;;7.53;4.40;;;19.80;75.80;;;;;;4994389;28;20179;-91
2021/08/01 10:22:04;;;;;;;4.88;4.25;;;19.50;77.90;;;;;;4993538;28;20207;-92
2021/08/01 10:24:43;;;;;;;5.75;4.60;;;19.20;79.20;;;;;;4994452;28;20241;-92
2021/08/01 10:27:10;;;;;;;7.18;5.00;;;18.80;80.50;;;;;;4992992;28;20274;-92
2021/08/01 10:29:46;;;;;;;5.28;4.78;;;18.60;81.70;;;;;;4993971;28;20192;-91
2021/08/01 10:32:13;;;;;;;6.47;5.60;;;18.60;82.90;;;;;;4993431;28;20203;-92
2021/08/01 10:35:06;;;;;;;6.70;5.78;;;18.70;83.80;;;;;;4995127;28;20354;-92
2021/08/01 10:37:44;;;;;;;11.88;7.13;;;18.80;84.50;;;;;;4994364;28;20245;-91
2021/08/01 10:40:13;;;;;;;7.07;6.38;;;18.90;84.90;;;;;;4993665;28;20171;-92
2021/08/01 10:42:41;;;;;;;13.50;7.22;;;19.10;85.20;;;;;;5007494;28;20211;-92
2021/08/01 10:45:09;;;;;;;6.00;5.40;;;19.10;85.10;;;;;;4994149;28;20229;-91
2021/08/01 10:47:37;;;;;;;5.85;5.25;;;19.20;84.50;;;;;;4993361;28;20217;-91
2021/08/01 10:50:06;;;;;;;5.82;5.32;;;19.20;83.90;;;;;;4994016;28;20263;-92
2021/08/01 10:52:34;;;;;;;6.15;5.55;;;19.30;83.40;;;;;;5008415;28;20207;-91
2021/08/01 10:55:01;;;;;;;6.47;5.88;;;19.30;83.20;;;;;;4994157;28;20206;-91
2021/08/01 10:57:28;;;;;;;5.47;4.97;;;19.40;83.20;;;;;;4995037;28;20176;-91
2021/08/01 10:59:56;;;;;;;5.55;4.78;;;19.40;83.00;;;;;;4993219;28;20171;-91
2021/08/01 11:02:23;;;;;;;7.30;4.97;;;19.40;82.70;;;;;;4992832;28;20393;-91
2021/08/01 11:04:53;;;;;;;5.88;5.35;;;19.40;82.90;;;;;;4993309;28;20781;-91
2021/08/01 11:07:28;;;;;;;5.47;4.97;;;19.50;83.40;;;;;;4993324;28;20646;-91
2021/08/01 11:10:10;;;;;;;7.53;5.20;;;19.50;83.10;;;;;;4993779;28;20183;-92
2021/08/01 11:12:41;;;;;;;6.60;5.60;;;19.70;83.00;;;;;;4992662;28;20240;-91
2021/08/01 11:15:09;;;;;;;6.10;5.50;;;20.00;83.00;;;;;;4993148;28;20625;-91
2021/08/01 11:17:41;;;;;;;7.35;5.50;;;20.30;83.00;;;;;;4992918;28;20193;-92
2021/08/01 11:20:15;;;;;;;10.18;6.07;;;20.40;81.70;;;;;;4993074;28;20650;-91
2021/08/01 11:22:44;;;;;;;9.15;6.60;;;20.30;80.60;;;;;;4993049;28;20257;-92
2021/08/01 11:25:30;;;;;;;5.63;4.97;;;20.30;79.90;;;;;;4992609;28;20183;-91
2021/08/01 11:28:08;;;;;;;6.97;6.25;;;20.40;80.20;;;;;;4993619;28;20662;-92
2021/08/01 11:30:50;;;;;;;6.50;5.82;;;20.80;80.20;;;;;;4993317;28;20739;-91
2021/08/01 11:33:40;;;;;;;6.00;5.30;;;21.00;79.40;;;;;;4993031;28;20199;-92
2021/08/01 11:36:12;;;;;;;5.37;4.33;;;21.10;78.20;;;;;;4992467;28;20202;-91
2021/08/01 11:38:54;;;;;;;5.00;4.40;;;21.50;77.10;;;;;;4999553;28;20414;-92
2021/08/01 11:41:28;;;;;;;5.20;4.70;;;21.70;74.90;;;;;;4997941;28;20426;-92
2021/08/01 11:44:20;;;;;;;7.53;5.73;;;21.80;73.90;;;;;;4997374;28;20557;-92
2021/08/01 11:47:09;;;;;;;5.87;5.37;;;21.70;73.10;;;;;;4997652;28;20929;-91
2021/08/01 11:49:45;;;;;;;5.80;5.13;;;21.40;72.60;;;;;;4996560;28;20472;-91
2021/08/01 11:52:13;;;;;;;5.33;4.83;;;21.40;73.00;;;;;;4996866;28;20442;-92
2021/08/01 11:54:43;;;;;;;5.87;5.27;;;21.70;72.50;;;;;;4996496;28;20418;-91
2021/08/01 11:57:13;;;;;;;11.23;5.33;;;22.20;72.30;;;;;;4996813;28;20744;-92
2021/08/01 11:59:41;;;;;;;7.03;6.13;;;22.50;72.10;;;;;;5002721;28;21003;-91
2021/08/01 12:02:09;;;;;;;7.27;6.57;;;22.20;70.00;;;;;;5011115;28;20441;-92
2021/08/01 12:04:35;;;;;;;6.73;6.00;;;22.30;70.10;;;;;;5000607;28;20414;-91
2021/08/01 12:07:01;;;;;;;6.40;5.73;;;22.60;68.90;;;;;;4997741;28;20476;-91
2021/08/01 12:09:28;;;;;;;5.80;5.13;;;23.10;69.30;;;;;;4997984;28;20175;-92
2021/08/01 12:11:56;;;;;;;6.03;5.57;;;23.30;66.50;;;;;;4980552;28;20203;-92
2021/08/01 12:14:24;;;;;;;6.70;6.00;;;23.20;66.10;;;;;;4997959;28;21095;-92
2021/08/01 12:17:03;;;;;;;8.20;6.40;;;23.40;65.60;;;;;;4997694;28;20466;-92
2021/08/01 12:19:35;;;;;;;5.30;4.80;;;23.10;64.40;;;;;;4997235;28;20406;-91
2021/08/01 12:22:09;;;;;;;9.43;5.80;;;23.20;64.80;;;;;;4996561;28;20482;-92
2021/08/01 12:24:43;;;;;;;8.10;5.20;;;23.20;63.70;;;;;;4997685;28;20425;-92
2021/08/01 12:27:13;;;;;;;6.83;4.97;;;23.20;63.70;;;;;;4996198;28;20402;-92
2021/08/01 12:29:46;;;;;;;5.17;4.67;;;23.10;63.60;;;;;;4997024;28;20510;-92
2021/08/01 12:32:26;;;;;;;5.30;4.67;;;23.10;63.50;;;;;;4995514;28;20533;-91
2021/08/01 12:35:05;;;;;;;5.43;4.80;;;23.20;63.10;;;;;;5007460;28;20468;-92
2021/08/01 12:37:42;;;;;;;7.53;6.80;;;22.80;63.30;;;;;;4999839;28;20553;-92
2021/08/01 12:40:09;;;;;;;6.47;5.83;;;22.60;63.90;;;;;;4995646;28;20417;-92
2021/08/01 12:42:35;;;;;;;5.23;4.73;;;23.10;64.70;;;;;;4996288;28;20449;-92